sensor_id;sensor_type;location;lat;lon;timestamp;temperature;humidity
39021;DHT22;25188;51.958;5.842;2022-09-19T00:01:23;10.40;99.90
39021;DHT22;25188;51.958;5.842;2022-09-19T00:03:58;10.40;99.90
39021;DHT22;25188;51.958;5.842;2022-09-19T00:06:26;10.40;99.90
39021;DHT22;25188;51.958;5.842;2022-09-19T00:08:53;10.50;99.90
39021;DHT22;25188;51.958;5.842;2022-09-19T00:11:20;10.50;99.90
39021;DHT22;25188;51.958;5.842;2022-09-19T00:13:48;10.50;99.90
39021;DHT22;25188;51.958;5.842;2022-09-19T00:16:35;10.50;99.90
39021;DHT22;25188;51.958;5.842;2022-09-19T00:19:05;10.50;99.90
39021;DHT22;25188;51.958;5.842;2022-09-19T00:21:33;10.50;99.90
39021;DHT22;25188;51.958;5.842;2022-09-19T00:24:00;10.50;99.90
39021;DHT22;25188;51.958;5.842;2022-09-19T00:26:45;10.50;99.90
39021;DHT22;25188;51.958;5.842;2022-09-19T00:29:11;10.50;99.90
39021;DHT22;25188;51.958;5.842;2022-09-19T00:31:37;10.50;99.90
39021;DHT22;25188;51.958;5.842;2022-09-19T00:34:04;10.50;99.90
39021;DHT22;25188;51.958;5.842;2022-09-19T00:36:34;10.40;99.90
39021;DHT22;25188;51.958;5.842;2022-09-19T00:39:01;10.50;99.90
39021;DHT22;25188;51.958;5.842;2022-09-19T00:41:27;10.50;99.90
39021;DHT22;25188;51.958;5.842;2022-09-19T00:43:59;10.50;99.90
39021;DHT22;25188;51.958;5.842;2022-09-19T00:46:28;10.50;99.90
39021;DHT22;25188;51.958;5.842;2022-09-19T00:49:14;10.50;99.90
39021;DHT22;25188;51.958;5.842;2022-09-19T00:51:48;10.50;99.90
39021;DHT22;25188;51.958;5.842;2022-09-19T00:54:21;10.50;99.90
39021;DHT22;25188;51.958;5.842;2022-09-19T00:56:51;10.50;99.90
39021;DHT22;25188;51.958;5.842;2022-09-19T00:59:19;10.60;99.90
39021;DHT22;25188;51.958;5.842;2022-09-19T01:01:47;10.60;99.90
39021;DHT22;25188;51.958;5.842;2022-09-19T01:04:20;10.60;99.90
39021;DHT22;25188;51.958;5.842;2022-09-19T01:10:01;10.60;99.90
39021;DHT22;25188;51.958;5.842;2022-09-19T01:17:59;10.60;99.90
39021;DHT22;25188;51.958;5.842;2022-09-19T01:21:06;10.70;99.90
39021;DHT22;25188;51.958;5.842;2022-09-19T01:30:03;10.80;99.90
39021;DHT22;25188;51.958;5.842;2022-09-19T01:32:31;10.90;99.90
39021;DHT22;25188;51.958;5.842;2022-09-19T01:35:02;10.80;99.90
39021;DHT22;25188;51.958;5.842;2022-09-19T01:37:35;10.90;99.90
39021;DHT22;25188;51.958;5.842;2022-09-19T01:40:04;11.00;99.90
39021;DHT22;25188;51.958;5.842;2022-09-19T01:42:30;11.00;99.90
39021;DHT22;25188;51.958;5.842;2022-09-19T01:44:56;11.10;99.90
39021;DHT22;25188;51.958;5.842;2022-09-19T01:50:27;11.20;99.90
39021;DHT22;25188;51.958;5.842;2022-09-19T01:58:43;11.20;99.90
39021;DHT22;25188;51.958;5.842;2022-09-19T02:01:18;11.20;99.90
39021;DHT22;25188;51.958;5.842;2022-09-19T02:04:22;11.30;99.90
39021;DHT22;25188;51.958;5.842;2022-09-19T02:06:55;11.20;99.90
39021;DHT22;25188;51.958;5.842;2022-09-19T02:09:44;11.20;99.90
39021;DHT22;25188;51.958;5.842;2022-09-19T02:12:12;11.20;99.90
39021;DHT22;25188;51.958;5.842;2022-09-19T02:14:42;11.20;99.90
39021;DHT22;25188;51.958;5.842;2022-09-19T02:17:19;11.20;99.90
39021;DHT22;25188;51.958;5.842;2022-09-19T02:20:09;11.20;99.90
39021;DHT22;25188;51.958;5.842;2022-09-19T02:22:39;11.20;99.90
39021;DHT22;25188;51.958;5.842;2022-09-19T02:25:11;11.20;99.90
39021;DHT22;25188;51.958;5.842;2022-09-19T02:27:49;11.20;99.90
39021;DHT22;25188;51.958;5.842;2022-09-19T02:30:16;11.20;99.90
39021;DHT22;25188;51.958;5.842;2022-09-19T02:32:46;11.30;99.90
39021;DHT22;25188;51.958;5.842;2022-09-19T02:38:40;11.30;99.90
39021;DHT22;25188;51.958;5.842;2022-09-19T02:41:36;11.30;99.90
39021;DHT22;25188;51.958;5.842;2022-09-19T02:44:21;11.30;99.90
39021;DHT22;25188;51.958;5.842;2022-09-19T02:46:53;11.30;99.90
39021;DHT22;25188;51.958;5.842;2022-09-19T02:49:46;11.30;99.90
39021;DHT22;25188;51.958;5.842;2022-09-19T02:52:26;11.40;99.90
39021;DHT22;25188;51.958;5.842;2022-09-19T02:54:56;11.40;99.90
39021;DHT22;25188;51.958;5.842;2022-09-19T02:57:27;11.40;99.90
39021;DHT22;25188;51.958;5.842;2022-09-19T02:59:57;11.40;99.90
39021;DHT22;25188;51.958;5.842;2022-09-19T03:02:54;11.50;99.90
39021;DHT22;25188;51.958;5.842;2022-09-19T03:05:24;11.50;99.90
39021;DHT22;25188;51.958;5.842;2022-09-19T03:08:07;11.50;99.90
39021;DHT22;25188;51.958;5.842;2022-09-19T03:10:37;11.50;99.90
39021;DHT22;25188;51.958;5.842;2022-09-19T03:13:06;11.50;99.90
39021;DHT22;25188;51.958;5.842;2022-09-19T03:15:50;11.60;99.90
39021;DHT22;25188;51.958;5.842;2022-09-19T03:18:21;11.60;99.90
39021;DHT22;25188;51.958;5.842;2022-09-19T03:20:51;11.60;99.90
39021;DHT22;25188;51.958;5.842;2022-09-19T03:23:23;11.60;99.90
39021;DHT22;25188;51.958;5.842;2022-09-19T03:25:51;11.70;99.90
39021;DHT22;25188;51.958;5.842;2022-09-19T03:28:17;11.60;99.90
39021;DHT22;25188;51.958;5.842;2022-09-19T03:30:46;11.70;99.90
39021;DHT22;25188;51.958;5.842;2022-09-19T03:33:11;11.70;99.90
39021;DHT22;25188;51.958;5.842;2022-09-19T03:35:41;11.70;99.90
39021;DHT22;25188;51.958;5.842;2022-09-19T03:38:08;11.70;99.90
39021;DHT22;25188;51.958;5.842;2022-09-19T03:40:34;11.60;99.90
39021;DHT22;25188;51.958;5.842;2022-09-19T03:43:00;11.70;99.90
39021;DHT22;25188;51.958;5.842;2022-09-19T03:45:26;11.70;99.90
39021;DHT22;25188;51.958;5.842;2022-09-19T03:47:51;11.70;99.90
39021;DHT22;25188;51.958;5.842;2022-09-19T03:50:17;11.60;99.90
39021;DHT22;25188;51.958;5.842;2022-09-19T03:52:43;11.60;99.80
39021;DHT22;25188;51.958;5.842;2022-09-19T03:55:13;11.60;99.80
39021;DHT22;25188;51.958;5.842;2022-09-19T03:57:39;11.50;99.80
39021;DHT22;25188;51.958;5.842;2022-09-19T04:00:05;11.50;99.80
39021;DHT22;25188;51.958;5.842;2022-09-19T04:02:31;11.50;99.80
39021;DHT22;25188;51.958;5.842;2022-09-19T04:04:58;11.50;99.80
39021;DHT22;25188;51.958;5.842;2022-09-19T04:07:24;11.40;99.80
39021;DHT22;25188;51.958;5.842;2022-09-19T04:09:53;11.40;99.80
39021;DHT22;25188;51.958;5.842;2022-09-19T04:12:21;11.50;99.80
39021;DHT22;25188;51.958;5.842;2022-09-19T04:14:47;11.40;99.80
39021;DHT22;25188;51.958;5.842;2022-09-19T04:17:14;11.30;99.80
39021;DHT22;25188;51.958;5.842;2022-09-19T04:19:40;11.40;99.90
39021;DHT22;25188;51.958;5.842;2022-09-19T04:22:10;11.40;99.90
39021;DHT22;25188;51.958;5.842;2022-09-19T04:24:36;11.40;99.90
39021;DHT22;25188;51.958;5.842;2022-09-19T04:27:05;11.40;99.90
39021;DHT22;25188;51.958;5.842;2022-09-19T04:29:37;11.40;99.90
39021;DHT22;25188;51.958;5.842;2022-09-19T04:32:04;11.40;99.90
39021;DHT22;25188;51.958;5.842;2022-09-19T04:34:30;11.50;99.90
39021;DHT22;25188;51.958;5.842;2022-09-19T04:36:56;11.50;99.90
39021;DHT22;25188;51.958;5.842;2022-09-19T04:39:23;11.50;99.90
39021;DHT22;25188;51.958;5.842;2022-09-19T04:41:50;11.50;99.90
39021;DHT22;25188;51.958;5.842;2022-09-19T04:44:19;11.50;99.90
39021;DHT22;25188;51.958;5.842;2022-09-19T04:46:54;11.60;99.90
39021;DHT22;25188;51.958;5.842;2022-09-19T04:49:19;11.60;99.90
39021;DHT22;25188;51.958;5.842;2022-09-19T04:51:45;11.60;99.90
39021;DHT22;25188;51.958;5.842;2022-09-19T04:54:11;11.70;99.90
39021;DHT22;25188;51.958;5.842;2022-09-19T04:56:38;11.70;99.90
39021;DHT22;25188;51.958;5.842;2022-09-19T04:59:04;11.70;99.90
39021;DHT22;25188;51.958;5.842;2022-09-19T05:01:30;11.70;99.90
39021;DHT22;25188;51.958;5.842;2022-09-19T05:03:56;11.70;99.90
39021;DHT22;25188;51.958;5.842;2022-09-19T05:06:22;11.70;99.90
39021;DHT22;25188;51.958;5.842;2022-09-19T05:08:48;11.70;99.90
39021;DHT22;25188;51.958;5.842;2022-09-19T05:11:16;11.70;99.90
39021;DHT22;25188;51.958;5.842;2022-09-19T05:13:47;11.70;99.90
39021;DHT22;25188;51.958;5.842;2022-09-19T05:16:14;11.70;99.90
39021;DHT22;25188;51.958;5.842;2022-09-19T05:18:41;11.70;99.90
39021;DHT22;25188;51.958;5.842;2022-09-19T05:21:10;11.60;99.90
39021;DHT22;25188;51.958;5.842;2022-09-19T05:23:37;11.60;99.90
39021;DHT22;25188;51.958;5.842;2022-09-19T05:26:08;11.60;99.90
39021;DHT22;25188;51.958;5.842;2022-09-19T05:28:35;11.60;99.90
39021;DHT22;25188;51.958;5.842;2022-09-19T05:31:01;11.60;99.90
39021;DHT22;25188;51.958;5.842;2022-09-19T05:33:31;11.60;99.90
39021;DHT22;25188;51.958;5.842;2022-09-19T05:35:59;11.60;99.90
39021;DHT22;25188;51.958;5.842;2022-09-19T05:38:26;11.70;99.90
39021;DHT22;25188;51.958;5.842;2022-09-19T05:40:53;11.70;99.90
39021;DHT22;25188;51.958;5.842;2022-09-19T05:43:19;11.70;99.90
39021;DHT22;25188;51.958;5.842;2022-09-19T05:45:44;11.70;99.90
39021;DHT22;25188;51.958;5.842;2022-09-19T05:48:10;11.80;99.90
39021;DHT22;25188;51.958;5.842;2022-09-19T05:50:36;11.80;99.90
39021;DHT22;25188;51.958;5.842;2022-09-19T05:53:02;11.90;99.90
39021;DHT22;25188;51.958;5.842;2022-09-19T05:55:49;11.90;99.90
39021;DHT22;25188;51.958;5.842;2022-09-19T05:58:15;11.90;99.90
39021;DHT22;25188;51.958;5.842;2022-09-19T06:00:42;12.00;99.90
39021;DHT22;25188;51.958;5.842;2022-09-19T06:03:11;12.00;99.90
39021;DHT22;25188;51.958;5.842;2022-09-19T06:05:41;12.00;99.90
39021;DHT22;25188;51.958;5.842;2022-09-19T06:08:08;12.00;99.90
39021;DHT22;25188;51.958;5.842;2022-09-19T06:10:36;12.10;99.90
39021;DHT22;25188;51.958;5.842;2022-09-19T06:13:06;12.00;99.90
39021;DHT22;25188;51.958;5.842;2022-09-19T06:15:33;12.00;99.90
39021;DHT22;25188;51.958;5.842;2022-09-19T06:17:59;12.00;99.90
39021;DHT22;25188;51.958;5.842;2022-09-19T06:20:25;12.00;99.90
39021;DHT22;25188;51.958;5.842;2022-09-19T06:23:02;12.10;99.90
39021;DHT22;25188;51.958;5.842;2022-09-19T06:25:32;11.90;99.90
39021;DHT22;25188;51.958;5.842;2022-09-19T06:27:59;11.90;99.90
39021;DHT22;25188;51.958;5.842;2022-09-19T06:30:27;11.90;99.90
39021;DHT22;25188;51.958;5.842;2022-09-19T06:32:53;11.90;99.90
39021;DHT22;25188;51.958;5.842;2022-09-19T06:35:20;11.90;99.90
39021;DHT22;25188;51.958;5.842;2022-09-19T06:37:47;11.90;99.90
39021;DHT22;25188;51.958;5.842;2022-09-19T06:40:13;11.90;99.90
39021;DHT22;25188;51.958;5.842;2022-09-19T06:42:40;11.90;99.90
39021;DHT22;25188;51.958;5.842;2022-09-19T06:45:06;12.00;99.90
39021;DHT22;25188;51.958;5.842;2022-09-19T06:47:33;11.90;99.90
39021;DHT22;25188;51.958;5.842;2022-09-19T06:49:59;12.00;99.90
39021;DHT22;25188;51.958;5.842;2022-09-19T06:52:26;12.00;99.90
39021;DHT22;25188;51.958;5.842;2022-09-19T06:54:52;12.00;99.90
39021;DHT22;25188;51.958;5.842;2022-09-19T06:57:18;12.00;99.90
39021;DHT22;25188;51.958;5.842;2022-09-19T06:59:43;12.10;99.90
39021;DHT22;25188;51.958;5.842;2022-09-19T07:02:10;12.10;99.90
39021;DHT22;25188;51.958;5.842;2022-09-19T07:04:36;12.20;99.90
39021;DHT22;25188;51.958;5.842;2022-09-19T07:07:02;12.20;99.90
39021;DHT22;25188;51.958;5.842;2022-09-19T07:09:29;12.30;99.90
39021;DHT22;25188;51.958;5.842;2022-09-19T07:11:55;12.30;99.90
39021;DHT22;25188;51.958;5.842;2022-09-19T07:14:23;12.40;99.90
39021;DHT22;25188;51.958;5.842;2022-09-19T07:16:49;12.40;99.90
39021;DHT22;25188;51.958;5.842;2022-09-19T07:19:14;12.50;99.90
39021;DHT22;25188;51.958;5.842;2022-09-19T07:21:40;12.60;99.90
39021;DHT22;25188;51.958;5.842;2022-09-19T07:24:06;12.70;99.90
39021;DHT22;25188;51.958;5.842;2022-09-19T07:26:33;12.80;99.90
39021;DHT22;25188;51.958;5.842;2022-09-19T07:28:58;12.90;99.90
39021;DHT22;25188;51.958;5.842;2022-09-19T07:31:26;13.00;99.90
39021;DHT22;25188;51.958;5.842;2022-09-19T07:33:52;13.00;99.90
39021;DHT22;25188;51.958;5.842;2022-09-19T07:36:19;13.10;99.90
39021;DHT22;25188;51.958;5.842;2022-09-19T07:38:47;13.30;99.90
39021;DHT22;25188;51.958;5.842;2022-09-19T07:41:14;13.40;99.90
39021;DHT22;25188;51.958;5.842;2022-09-19T07:43:40;13.60;99.90
39021;DHT22;25188;51.958;5.842;2022-09-19T07:46:06;13.60;99.90
39021;DHT22;25188;51.958;5.842;2022-09-19T07:48:31;13.70;99.90
39021;DHT22;25188;51.958;5.842;2022-09-19T07:50:57;13.80;99.70
39021;DHT22;25188;51.958;5.842;2022-09-19T07:53:23;13.90;99.40
39021;DHT22;25188;51.958;5.842;2022-09-19T07:55:50;13.90;99.00
39021;DHT22;25188;51.958;5.842;2022-09-19T07:58:17;14.00;98.90
39021;DHT22;25188;51.958;5.842;2022-09-19T08:00:43;14.00;98.70
39021;DHT22;25188;51.958;5.842;2022-09-19T08:03:13;14.00;98.60
39021;DHT22;25188;51.958;5.842;2022-09-19T08:05:41;14.00;98.10
39021;DHT22;25188;51.958;5.842;2022-09-19T08:08:09;14.00;97.70
39021;DHT22;25188;51.958;5.842;2022-09-19T08:10:36;13.90;97.80
39021;DHT22;25188;51.958;5.842;2022-09-19T08:13:04;14.00;97.80
39021;DHT22;25188;51.958;5.842;2022-09-19T08:15:31;14.10;97.60
39021;DHT22;25188;51.958;5.842;2022-09-19T08:18:03;14.10;97.60
39021;DHT22;25188;51.958;5.842;2022-09-19T08:20:31;14.20;97.40
39021;DHT22;25188;51.958;5.842;2022-09-19T08:22:58;14.30;97.30
39021;DHT22;25188;51.958;5.842;2022-09-19T08:25:26;14.40;97.20
39021;DHT22;25188;51.958;5.842;2022-09-19T08:27:52;14.50;97.00
39021;DHT22;25188;51.958;5.842;2022-09-19T08:30:19;14.50;96.60
39021;DHT22;25188;51.958;5.842;2022-09-19T08:32:48;14.60;96.30
39021;DHT22;25188;51.958;5.842;2022-09-19T08:35:16;14.60;96.30
39021;DHT22;25188;51.958;5.842;2022-09-19T08:37:42;14.60;96.20
39021;DHT22;25188;51.958;5.842;2022-09-19T08:40:30;14.70;96.10
39021;DHT22;25188;51.958;5.842;2022-09-19T08:54:11;15.00;95.70
39021;DHT22;25188;51.958;5.842;2022-09-19T08:56:38;15.10;95.40
39021;DHT22;25188;51.958;5.842;2022-09-19T08:59:09;15.30;95.20
39021;DHT22;25188;51.958;5.842;2022-09-19T09:01:37;15.30;94.70
39021;DHT22;25188;51.958;5.842;2022-09-19T09:04:24;15.40;94.20
39021;DHT22;25188;51.958;5.842;2022-09-19T09:20:53;15.60;89.90
39021;DHT22;25188;51.958;5.842;2022-09-19T09:23:30;15.70;89.60
39021;DHT22;25188;51.958;5.842;2022-09-19T09:26:05;15.70;90.10
39021;DHT22;25188;51.958;5.842;2022-09-19T09:31:44;15.80;90.20
39021;DHT22;25188;51.958;5.842;2022-09-19T09:36:49;16.00;90.50
39021;DHT22;25188;51.958;5.842;2022-09-19T09:39:28;16.10;90.40
39021;DHT22;25188;51.958;5.842;2022-09-19T09:41:59;16.20;90.10
39021;DHT22;25188;51.958;5.842;2022-09-19T09:44:41;16.30;89.60
39021;DHT22;25188;51.958;5.842;2022-09-19T09:47:31;16.30;88.90
39021;DHT22;25188;51.958;5.842;2022-09-19T09:50:31;16.40;89.00
39021;DHT22;25188;51.958;5.842;2022-09-19T09:53:25;16.50;88.50
39021;DHT22;25188;51.958;5.842;2022-09-19T09:59:01;16.70;85.40
39021;DHT22;25188;51.958;5.842;2022-09-19T10:01:34;16.60;83.60
39021;DHT22;25188;51.958;5.842;2022-09-19T10:07:18;16.90;81.80
39021;DHT22;25188;51.958;5.842;2022-09-19T10:10:02;16.80;81.50
39021;DHT22;25188;51.958;5.842;2022-09-19T10:12:41;16.80;81.70
39021;DHT22;25188;51.958;5.842;2022-09-19T10:15:15;16.80;82.00
39021;DHT22;25188;51.958;5.842;2022-09-19T10:17:46;17.20;83.60
39021;DHT22;25188;51.958;5.842;2022-09-19T10:20:19;17.90;83.60
39021;DHT22;25188;51.958;5.842;2022-09-19T10:22:48;18.40;81.80
39021;DHT22;25188;51.958;5.842;2022-09-19T10:25:15;18.70;79.50
39021;DHT22;25188;51.958;5.842;2022-09-19T10:27:42;18.90;79.50
39021;DHT22;25188;51.958;5.842;2022-09-19T10:32:42;19.50;76.70
39021;DHT22;25188;51.958;5.842;2022-09-19T10:35:32;19.40;73.70
39021;DHT22;25188;51.958;5.842;2022-09-19T10:40:33;19.00;71.90
39021;DHT22;25188;51.958;5.842;2022-09-19T10:43:00;18.70;71.90
39021;DHT22;25188;51.958;5.842;2022-09-19T10:45:32;18.50;72.00
39021;DHT22;25188;51.958;5.842;2022-09-19T10:48:07;18.30;72.50
39021;DHT22;25188;51.958;5.842;2022-09-19T10:50:34;18.10;73.60
39021;DHT22;25188;51.958;5.842;2022-09-19T10:53:04;17.80;74.10
39021;DHT22;25188;51.958;5.842;2022-09-19T10:55:34;17.60;74.30
39021;DHT22;25188;51.958;5.842;2022-09-19T10:58:03;17.40;75.10
39021;DHT22;25188;51.958;5.842;2022-09-19T11:00:30;17.20;75.90
39021;DHT22;25188;51.958;5.842;2022-09-19T11:03:03;17.10;76.40
39021;DHT22;25188;51.958;5.842;2022-09-19T11:05:33;17.00;77.00
39021;DHT22;25188;51.958;5.842;2022-09-19T11:08:03;16.90;77.60
39021;DHT22;25188;51.958;5.842;2022-09-19T11:10:37;16.90;78.00
39021;DHT22;25188;51.958;5.842;2022-09-19T11:13:18;16.80;78.20
39021;DHT22;25188;51.958;5.842;2022-09-19T11:16:40;16.70;77.40
39021;DHT22;25188;51.958;5.842;2022-09-19T11:24:44;16.50;77.50
39021;DHT22;25188;51.958;5.842;2022-09-19T11:27:51;16.50;79.90
39021;DHT22;25188;51.958;5.842;2022-09-19T11:30:22;16.70;81.30
39021;DHT22;25188;51.958;5.842;2022-09-19T11:33:18;17.40;84.10
39021;DHT22;25188;51.958;5.842;2022-09-19T11:36:20;18.50;84.00
39021;DHT22;25188;51.958;5.842;2022-09-19T11:41:39;20.20;78.90
39021;DHT22;25188;51.958;5.842;2022-09-19T12:00:43;22.60;67.70
39021;DHT22;25188;51.958;5.842;2022-09-19T12:09:08;23.40;63.90
39021;DHT22;25188;51.958;5.842;2022-09-19T12:14:16;24.40;57.40
39021;DHT22;25188;51.958;5.842;2022-09-19T12:16:47;24.70;54.00
39021;DHT22;25188;51.958;5.842;2022-09-19T12:19:23;24.80;53.40
39021;DHT22;25188;51.958;5.842;2022-09-19T12:22:45;25.00;51.80
39021;DHT22;25188;51.958;5.842;2022-09-19T12:25:16;25.10;51.20
39021;DHT22;25188;51.958;5.842;2022-09-19T12:27:50;24.70;49.00
39021;DHT22;25188;51.958;5.842;2022-09-19T12:30:19;23.80;49.70
39021;DHT22;25188;51.958;5.842;2022-09-19T12:32:53;22.90;51.10
39021;DHT22;25188;51.958;5.842;2022-09-19T12:35:35;22.20;52.80
39021;DHT22;25188;51.958;5.842;2022-09-19T12:41:21;21.00;56.00
39021;DHT22;25188;51.958;5.842;2022-09-19T12:46:58;22.10;56.20
39021;DHT22;25188;51.958;5.842;2022-09-19T12:59:38;22.20;56.60
39021;DHT22;25188;51.958;5.842;2022-09-19T13:05:01;22.10;58.10
39021;DHT22;25188;51.958;5.842;2022-09-19T13:12:49;23.90;57.10
39021;DHT22;25188;51.958;5.842;2022-09-19T13:15:38;24.50;55.70
39021;DHT22;25188;51.958;5.842;2022-09-19T13:18:12;25.00;55.00
39021;DHT22;25188;51.958;5.842;2022-09-19T13:20:57;25.30;53.70
39021;DHT22;25188;51.958;5.842;2022-09-19T13:23:44;24.90;53.10
39021;DHT22;25188;51.958;5.842;2022-09-19T13:26:14;24.10;52.80
39021;DHT22;25188;51.958;5.842;2022-09-19T13:28:55;23.50;52.10
39021;DHT22;25188;51.958;5.842;2022-09-19T13:45:41;20.30;57.60
39021;DHT22;25188;51.958;5.842;2022-09-19T13:48:34;20.40;57.70
39021;DHT22;25188;51.958;5.842;2022-09-19T13:51:06;20.40;58.30
39021;DHT22;25188;51.958;5.842;2022-09-19T13:53:42;20.40;59.20
39021;DHT22;25188;51.958;5.842;2022-09-19T13:56:27;20.20;60.40
39021;DHT22;25188;51.958;5.842;2022-09-19T14:01:56;21.40;60.60
39021;DHT22;25188;51.958;5.842;2022-09-19T14:04:23;21.60;60.10
39021;DHT22;25188;51.958;5.842;2022-09-19T14:07:17;21.30;59.20
39021;DHT22;25188;51.958;5.842;2022-09-19T14:09:44;20.90;59.50
39021;DHT22;25188;51.958;5.842;2022-09-19T14:15:42;20.20;60.80
39021;DHT22;25188;51.958;5.842;2022-09-19T14:20:56;19.80;62.50
39021;DHT22;25188;51.958;5.842;2022-09-19T14:23:39;19.60;62.40
39021;DHT22;25188;51.958;5.842;2022-09-19T14:37:31;20.60;60.70
39021;DHT22;25188;51.958;5.842;2022-09-19T14:46:01;22.20;57.20
39021;DHT22;25188;51.958;5.842;2022-09-19T14:56:28;22.80;54.20
39021;DHT22;25188;51.958;5.842;2022-09-19T14:58:54;23.10;54.10
39021;DHT22;25188;51.958;5.842;2022-09-19T15:01:30;23.40;53.10
39021;DHT22;25188;51.958;5.842;2022-09-19T15:04:24;23.70;52.00
39021;DHT22;25188;51.958;5.842;2022-09-19T15:06:54;23.80;51.60
39021;DHT22;25188;51.958;5.842;2022-09-19T15:09:35;23.90;51.30
39021;DHT22;25188;51.958;5.842;2022-09-19T15:12:19;24.10;51.20
39021;DHT22;25188;51.958;5.842;2022-09-19T15:14:51;23.70;51.00
39021;DHT22;25188;51.958;5.842;2022-09-19T15:17:25;22.80;52.50
39021;DHT22;25188;51.958;5.842;2022-09-19T15:22:35;21.10;60.10
39021;DHT22;25188;51.958;5.842;2022-09-19T15:25:14;20.20;61.90
39021;DHT22;25188;51.958;5.842;2022-09-19T15:27:48;19.50;63.70
39021;DHT22;25188;51.958;5.842;2022-09-19T15:30:26;18.90;65.40
39021;DHT22;25188;51.958;5.842;2022-09-19T15:32:59;18.50;66.30
39021;DHT22;25188;51.958;5.842;2022-09-19T15:35:26;18.20;67.40
39021;DHT22;25188;51.958;5.842;2022-09-19T15:37:58;18.00;68.30
39021;DHT22;25188;51.958;5.842;2022-09-19T15:40:29;17.90;68.60
39021;DHT22;25188;51.958;5.842;2022-09-19T15:42:56;17.80;68.70
39021;DHT22;25188;51.958;5.842;2022-09-19T15:48:22;17.60;70.30
39021;DHT22;25188;51.958;5.842;2022-09-19T15:50:54;17.50;71.10
39021;DHT22;25188;51.958;5.842;2022-09-19T15:56:06;17.20;71.60
39021;DHT22;25188;51.958;5.842;2022-09-19T15:58:38;17.10;72.20
39021;DHT22;25188;51.958;5.842;2022-09-19T16:01:13;16.90;72.60
39021;DHT22;25188;51.958;5.842;2022-09-19T16:03:44;16.90;72.90
39021;DHT22;25188;51.958;5.842;2022-09-19T16:06:35;16.80;73.50
39021;DHT22;25188;51.958;5.842;2022-09-19T16:09:36;16.70;74.30
39021;DHT22;25188;51.958;5.842;2022-09-19T16:12:32;16.70;75.40
39021;DHT22;25188;51.958;5.842;2022-09-19T16:15:01;16.90;74.90
39021;DHT22;25188;51.958;5.842;2022-09-19T16:22:59;17.40;74.30
39021;DHT22;25188;51.958;5.842;2022-09-19T16:25:45;17.50;74.00
39021;DHT22;25188;51.958;5.842;2022-09-19T16:28:28;17.40;73.90
39021;DHT22;25188;51.958;5.842;2022-09-19T16:33:33;17.30;73.90
39021;DHT22;25188;51.958;5.842;2022-09-19T16:36:01;17.20;73.90
39021;DHT22;25188;51.958;5.842;2022-09-19T16:38:27;17.00;74.10
39021;DHT22;25188;51.958;5.842;2022-09-19T16:40:58;16.90;74.40
39021;DHT22;25188;51.958;5.842;2022-09-19T16:43:39;16.60;74.80
39021;DHT22;25188;51.958;5.842;2022-09-19T16:46:12;16.50;75.40
39021;DHT22;25188;51.958;5.842;2022-09-19T16:48:39;16.50;75.80
39021;DHT22;25188;51.958;5.842;2022-09-19T16:51:14;16.30;76.20
39021;DHT22;25188;51.958;5.842;2022-09-19T16:53:41;16.20;76.30
39021;DHT22;25188;51.958;5.842;2022-09-19T16:56:07;16.20;76.90
39021;DHT22;25188;51.958;5.842;2022-09-19T16:58:34;16.10;77.10
39021;DHT22;25188;51.958;5.842;2022-09-19T17:01:03;16.00;77.30
39021;DHT22;25188;51.958;5.842;2022-09-19T17:03:29;16.00;78.00
39021;DHT22;25188;51.958;5.842;2022-09-19T17:05:54;15.80;78.20
39021;DHT22;25188;51.958;5.842;2022-09-19T17:08:20;15.80;78.50
39021;DHT22;25188;51.958;5.842;2022-09-19T17:10:46;15.80;78.80
39021;DHT22;25188;51.958;5.842;2022-09-19T17:13:14;15.80;79.40
39021;DHT22;25188;51.958;5.842;2022-09-19T17:15:45;15.70;79.30
39021;DHT22;25188;51.958;5.842;2022-09-19T17:18:12;15.60;79.50
39021;DHT22;25188;51.958;5.842;2022-09-19T17:20:40;15.50;80.00
39021;DHT22;25188;51.958;5.842;2022-09-19T17:23:09;15.50;80.10
39021;DHT22;25188;51.958;5.842;2022-09-19T17:25:44;15.50;80.60
39021;DHT22;25188;51.958;5.842;2022-09-19T17:28:12;15.40;81.00
39021;DHT22;25188;51.958;5.842;2022-09-19T17:30:38;15.40;81.30
39021;DHT22;25188;51.958;5.842;2022-09-19T17:33:05;15.40;81.60
39021;DHT22;25188;51.958;5.842;2022-09-19T17:35:31;15.40;81.70
39021;DHT22;25188;51.958;5.842;2022-09-19T17:37:57;15.30;81.80
39021;DHT22;25188;51.958;5.842;2022-09-19T17:40:24;15.30;81.70
39021;DHT22;25188;51.958;5.842;2022-09-19T17:42:51;15.30;81.90
39021;DHT22;25188;51.958;5.842;2022-09-19T17:45:17;15.20;81.90
39021;DHT22;25188;51.958;5.842;2022-09-19T17:47:43;15.20;82.10
39021;DHT22;25188;51.958;5.842;2022-09-19T17:50:09;15.10;82.30
39021;DHT22;25188;51.958;5.842;2022-09-19T17:52:38;15.00;82.40
39021;DHT22;25188;51.958;5.842;2022-09-19T17:55:04;15.00;82.80
39021;DHT22;25188;51.958;5.842;2022-09-19T17:57:30;15.00;83.00
39021;DHT22;25188;51.958;5.842;2022-09-19T17:59:56;15.00;83.20
39021;DHT22;25188;51.958;5.842;2022-09-19T18:02:22;14.90;83.40
39021;DHT22;25188;51.958;5.842;2022-09-19T18:05:06;14.90;84.10
39021;DHT22;25188;51.958;5.842;2022-09-19T18:07:32;14.90;83.70
39021;DHT22;25188;51.958;5.842;2022-09-19T18:09:59;14.90;83.90
39021;DHT22;25188;51.958;5.842;2022-09-19T18:12:25;14.80;84.00
39021;DHT22;25188;51.958;5.842;2022-09-19T18:14:51;14.80;84.30
39021;DHT22;25188;51.958;5.842;2022-09-19T18:17:16;14.90;84.50
39021;DHT22;25188;51.958;5.842;2022-09-19T18:19:46;14.80;84.70
39021;DHT22;25188;51.958;5.842;2022-09-19T18:22:12;14.80;84.90
39021;DHT22;25188;51.958;5.842;2022-09-19T18:24:38;14.70;85.00
39021;DHT22;25188;51.958;5.842;2022-09-19T18:27:04;14.80;85.10
39021;DHT22;25188;51.958;5.842;2022-09-19T18:29:30;14.70;85.20
39021;DHT22;25188;51.958;5.842;2022-09-19T18:31:57;14.70;85.40
39021;DHT22;25188;51.958;5.842;2022-09-19T18:34:22;14.70;85.50
39021;DHT22;25188;51.958;5.842;2022-09-19T18:36:48;14.70;85.70
39021;DHT22;25188;51.958;5.842;2022-09-19T18:39:14;14.60;85.60
39021;DHT22;25188;51.958;5.842;2022-09-19T18:41:40;14.60;85.80
39021;DHT22;25188;51.958;5.842;2022-09-19T18:44:06;14.60;85.90
39021;DHT22;25188;51.958;5.842;2022-09-19T18:46:32;14.50;86.00
39021;DHT22;25188;51.958;5.842;2022-09-19T18:48:58;14.40;86.10
39021;DHT22;25188;51.958;5.842;2022-09-19T18:51:26;14.40;86.30
39021;DHT22;25188;51.958;5.842;2022-09-19T18:53:54;14.40;86.50
39021;DHT22;25188;51.958;5.842;2022-09-19T18:56:20;14.40;86.70
39021;DHT22;25188;51.958;5.842;2022-09-19T18:58:54;14.30;86.90
39021;DHT22;25188;51.958;5.842;2022-09-19T19:01:20;14.30;87.10
39021;DHT22;25188;51.958;5.842;2022-09-19T19:03:54;14.20;87.00
39021;DHT22;25188;51.958;5.842;2022-09-19T19:06:21;14.20;87.10
39021;DHT22;25188;51.958;5.842;2022-09-19T19:08:48;14.10;87.10